Date,TemperatureHighF,TemperatureAvgF,TemperatureLowF,DewpointHighF,DewpointAvgF,DewpointLowF,HumidityHigh,HumidityAvg,HumidityLow,PressureMaxIn,PressureMinIn,WindSpeedMaxMPH,WindSpeedAvgMPH,GustSpeedMaxMPH,PrecipitationSumIn
2013-4-1,55,47,39,45,38,33,99,75,45,0.00,40.00,7,5,16,0.02
2013-4-2,56,41,31,33,17,5,76,44,15,0.00,40.00,9,6,18,0.01
2013-4-3,55,43,32,26,21,12,62,45,18,0.00,40.00,7,4,13,0.00
2013-4-4,40,35,30,35,29,20,98,81,47,0.00,40.00,17,6,24,0.75
2013-4-5,57,43,34,45,34,26,98,76,38,0.00,40.00,9,4,17,0.11
2013-4-6,62,49,39,31,27,24,64,45,27,0.00,40.00,7,4,13,0.00
2013-4-7,62,50,40,41,34,27,68,54,38,0.00,40.00,7,5,15,0.00
2013-4-8,65,56,49,50,45,39,85,66,47,0.00,40.00,7,5,12,0.00
2013-4-9,74,61,54,52,49,46,82,65,41,0.00,40.00,6,4,11,0.00
2013-4-10,77,65,55,53,50,48,80,61,37,0.00,40.00,6,5,11,0.00
2013-4-11,68,59,54,59,52,47,100,77,51,0.00,40.00,11,6,22,0.72
2013-4-12,63,55,43,55,45,31,100,71,39,0.00,40.00,11,6,22,1.89
2013-4-13,65,50,40,36,29,22,77,49,19,0.00,40.00,10,7,24,0.10
2013-4-14,60,52,45,44,34,26,98,55,35,0.00,40.00,10,6,22,0.17
2013-4-15,69,54,45,56,50,44,99,87,62,0.00,40.00,8,3,19,0.40
2013-4-16,73,59,51,57,53,50,99,83,53,0.00,40.00,6,4,14,0.01
2013-4-17,74,60,54,63,54,51,98,82,51,0.00,40.00,9,4,16,1.13
2013-4-18,65,58,55,56,54,51,99,88,68,0.00,40.00,8,6,17,0.34
2013-4-19,58,52,35,57,51,30,100,96,74,0.00,40.00,10,8,21,1.56
2013-4-20,55,40,28,32,26,20,92,62,31,0.00,40.00,10,6,20,0.11
2013-4-21,57,45,39,32,26,20,72,46,34,0.00,40.00,10,5,21,0.00
2013-4-22,62,47,36,36,34,31,87,62,32,0.00,40.00,11,5,19,0.00
2013-4-23,67,51,39,40,33,21,74,50,34,0.00,40.00,8,2,18,0.00
2013-4-24,60,53,48,53,46,40,97,81,60,0.00,40.00,8,5,16,0.16
2013-4-25,63,50,36,51,28,10,98,56,12,0.00,40.00,5,3,18,0.11
2013-4-26,64,51,39,33,27,18,54,40,29,0.00,40.00,6,1,15,0.00
2013-4-27,51,45,42,45,42,33,98,90,49,0.00,40.00,9,3,16,0.58
2013-4-28,50,46,44,50,44,-100,99,98,92,0.00,40.00,8,5,19,1.96
2013-4-29,67,53,46,53,49,46,99,87,58,0.00,40.00,6,3,11,0.66
2013-4-30,68,60,50,52,50,46,93,71,53,0.00,40.00,6,5,12,0.00